Time;durP1;ratioP1;P1;durP2;ratioP2;P2;SDS_P1;SDS_P2;PMS_P1;PMS_P2;Temp;Humidity;BMP_temperature;BMP_pressure;BME280_temperature;BME280_humidity;BME280_pressure;Samples;Min_cycle;Max_cycle;Signal;HPM_P1;HPM_P2
2023/09/05 00:01:42;;;;;;;9.27;5.97;;;;;;;;;;5013225;28;20399;-73
2023/09/05 00:04:07;;;;;;;9.75;6.47;;;;;;;;;;5014293;28;20412;-73
2023/09/05 00:06:33;;;;;;;9.00;5.32;;;;;;;;;;5013670;28;20033;-73
2023/09/05 00:08:59;;;;;;;7.57;5.35;;;;;;;;;;5012593;28;20026;-73
2023/09/05 00:11:25;;;;;;;8.27;5.10;;;;;;;;;;5013825;28;20022;-76
2023/09/05 00:13:50;;;;;;;7.10;4.53;;;;;;;;;;5013093;28;20065;-76
2023/09/05 00:16:15;;;;;;;11.05;5.72;;;;;;;;;;5013675;28;20052;-75
2023/09/05 00:18:43;;;;;;;9.07;5.75;;;;;;;;;;5012115;28;20021;-76
2023/09/05 00:21:09;;;;;;;12.77;7.07;;;;;;;;;;5013801;28;20033;-75
2023/09/05 00:23:34;;;;;;;14.52;8.77;;;;;;;;;;5013076;28;20369;-76
2023/09/05 00:25:59;;;;;;;10.02;6.10;;;;;;;;;;5012322;28;20029;-76
2023/09/05 00:28:25;;;;;;;8.63;5.00;;;;;;;;;;5012187;28;20022;-76
2023/09/05 00:30:50;;;;;;;10.07;5.03;;;;;;;;;;5013420;28;20067;-76
2023/09/05 00:33:15;;;;;;;8.70;4.90;;;;;;;;;;5013795;28;20500;-75
2023/09/05 00:35:41;;;;;;;9.23;5.47;;;;;;;;;;5013299;28;20127;-76
2023/09/05 00:38:07;;;;;;;13.30;6.38;;;;;;;;;;5013822;28;20038;-76
2023/09/05 00:40:32;;;;;;;13.38;7.50;;;;;;;;;;5012633;28;20443;-76
2023/09/05 00:42:58;;;;;;;11.98;6.03;;;;;;;;;;5012590;28;20377;-75
2023/09/05 00:45:24;;;;;;;12.90;7.38;;;;;;;;;;5013182;28;20037;-76
2023/09/05 00:47:49;;;;;;;13.13;7.13;;;;;;;;;;4995884;28;20033;-75
2023/09/05 00:50:18;;;;;;;14.35;7.32;;;;;;;;;;5013528;28;20559;-76
2023/09/05 00:52:46;;;;;;;13.68;6.65;;;;;;;;;;5014002;28;20061;-75
2023/09/05 00:55:11;;;;;;;13.05;6.85;;;;;;;;;;5013539;28;20034;-75
2023/09/05 00:57:38;;;;;;;12.43;6.35;;;;;;;;;;4995510;28;20110;-75
2023/09/05 01:00:05;;;;;;;12.90;6.45;;;;;;;;;;5013371;28;20049;-76
2023/09/05 01:02:30;;;;;;;13.27;7.43;;;;;;;;;;5016031;28;20032;-75
2023/09/05 01:04:56;;;;;;;12.85;7.13;;;;;;;;;;5015541;28;20108;-76
2023/09/05 01:07:30;;;;;;;12.13;6.63;;;;;;;;;;5016120;28;20018;-76
2023/09/05 01:10:03;;;;;;;10.60;5.70;;;;;;;;;;5015981;28;20029;-76
2023/09/05 01:12:28;;;;;;;15.90;7.63;;;;;;;;;;4999272;28;20033;-76
2023/09/05 01:14:53;;;;;;;13.48;7.20;;;;;;;;;;5017077;28;20149;-75
2023/09/05 01:17:19;;;;;;;12.82;6.88;;;;;;;;;;5016440;28;20029;-75
2023/09/05 01:19:46;;;;;;;14.45;7.82;;;;;;;;;;5016842;28;20026;-76
2023/09/05 01:22:24;;;;;;;13.73;6.43;;;;;;;;;;5015642;28;20107;-75
2023/09/05 01:24:50;;;;;;;13.30;6.85;;;;;;;;;;5015568;28;20026;-75
2023/09/05 01:27:21;;;;;;;12.38;7.28;;;;;;;;;;5015616;28;20036;-75
2023/09/05 01:29:46;;;;;;;13.82;7.35;;;;;;;;;;5014817;28;20484;-73
2023/09/05 01:32:11;;;;;;;14.15;7.70;;;;;;;;;;5015366;28;20032;-73
2023/09/05 01:34:38;;;;;;;14.55;7.50;;;;;;;;;;5016490;28;20037;-72
2023/09/05 01:37:03;;;;;;;15.80;7.78;;;;;;;;;;4998805;28;20033;-73
2023/09/05 01:39:29;;;;;;;12.35;6.82;;;;;;;;;;5015281;28;20022;-72
2023/09/05 01:41:57;;;;;;;15.18;8.30;;;;;;;;;;5015143;28;20033;-75
2023/09/05 01:44:22;;;;;;;14.00;7.05;;;;;;;;;;5016499;28;20471;-75
2023/09/05 01:46:47;;;;;;;10.98;6.32;;;;;;;;;;5016167;28;20037;-75
2023/09/05 01:49:13;;;;;;;15.68;7.60;;;;;;;;;;5016185;28;20033;-75
2023/09/05 01:51:38;;;;;;;11.35;5.78;;;;;;;;;;5015080;28;20030;-76
2023/09/05 01:54:04;;;;;;;12.40;5.95;;;;;;;;;;5016557;28;20029;-75
2023/09/05 01:56:29;;;;;;;9.38;5.50;;;;;;;;;;5014313;28;20555;-76
2023/09/05 01:58:54;;;;;;;11.23;5.75;;;;;;;;;;5015039;28;20018;-75
2023/09/05 02:01:20;;;;;;;10.48;5.55;;;;;;;;;;5014872;28;20498;-75
2023/09/05 02:03:45;;;;;;;13.25;6.68;;;;;;;;;;5014739;28;20400;-75
2023/09/05 02:06:12;;;;;;;10.23;6.45;;;;;;;;;;5015885;28;20483;-76
2023/09/05 02:08:38;;;;;;;11.13;5.97;;;;;;;;;;5015727;28;20029;-75
2023/09/05 02:11:03;;;;;;;14.35;6.55;;;;;;;;;;5013997;28;20029;-75
2023/09/05 02:13:29;;;;;;;13.60;7.18;;;;;;;;;;5015398;28;20053;-75
2023/09/05 02:15:54;;;;;;;14.02;7.20;;;;;;;;;;5014574;28;20022;-75
2023/09/05 02:18:20;;;;;;;11.68;6.88;;;;;;;;;;4997957;28;20526;-75
2023/09/05 02:20:45;;;;;;;13.98;6.80;;;;;;;;;;5014023;28;20026;-73
2023/09/05 02:23:10;;;;;;;12.45;6.43;;;;;;;;;;5015602;28;20030;-73
2023/09/05 02:25:35;;;;;;;11.38;6.03;;;;;;;;;;5014105;28;20029;-72
2023/09/05 02:28:01;;;;;;;13.07;7.13;;;;;;;;;;5014660;28;20446;-73
2023/09/05 02:30:26;;;;;;;9.70;5.88;;;;;;;;;;5014878;28;20096;-73
2023/09/05 02:32:55;;;;;;;11.48;6.57;;;;;;;;;;5014222;28;20061;-73
2023/09/05 02:35:25;;;;;;;11.90;6.15;;;;;;;;;;5014199;28;20084;-72
2023/09/05 02:37:51;;;;;;;9.80;5.20;;;;;;;;;;5015133;28;20022;-73
2023/09/05 02:40:17;;;;;;;11.90;7.25;;;;;;;;;;5014884;28;20472;-73
2023/09/05 02:42:43;;;;;;;14.38;8.15;;;;;;;;;;5014114;28;20452;-72
2023/09/05 02:45:09;;;;;;;15.30;7.55;;;;;;;;;;4997665;28;20075;-72
2023/09/05 02:47:34;;;;;;;14.40;6.80;;;;;;;;;;5014565;28;20030;-73
2023/09/05 02:49:59;;;;;;;11.15;6.82;;;;;;;;;;5015094;28;20036;-73
2023/09/05 02:52:25;;;;;;;15.05;6.97;;;;;;;;;;5015570;28;20021;-72
2023/09/05 02:54:50;;;;;;;15.40;7.50;;;;;;;;;;5030380;28;20491;-73
2023/09/05 02:57:16;;;;;;;20.73;9.27;;;;;;;;;;5014776;28;20038;-73
2023/09/05 02:59:41;;;;;;;17.73;7.88;;;;;;;;;;5013271;28;20463;-73
2023/09/05 03:02:06;;;;;;;13.65;7.40;;;;;;;;;;5013824;28;20030;-73
2023/09/05 03:04:32;;;;;;;12.18;6.63;;;;;;;;;;5013649;28;20113;-73
2023/09/05 03:06:59;;;;;;;14.52;7.20;;;;;;;;;;5013777;28;20033;-73
2023/09/05 03:09:25;;;;;;;14.57;7.05;;;;;;;;;;5013054;28;20022;-73
2023/09/05 03:11:50;;;;;;;11.32;6.60;;;;;;;;;;5014078;28;20029;-72
2023/09/05 03:14:15;;;;;;;13.25;6.65;;;;;;;;;;5013418;28;20030;-72
2023/09/05 03:16:41;;;;;;;11.88;6.43;;;;;;;;;;4996684;28;20029;-73
2023/09/05 03:19:06;;;;;;;10.82;6.13;;;;;;;;;;5013397;28;20021;-72
2023/09/05 03:21:32;;;;;;;11.23;5.70;;;;;;;;;;5014584;28;20044;-73
2023/09/05 03:23:59;;;;;;;12.65;6.85;;;;;;;;;;4996956;28;20049;-72
2023/09/05 03:26:24;;;;;;;14.23;7.20;;;;;;;;;;5014407;28;20036;-73
2023/09/05 03:28:49;;;;;;;13.00;6.68;;;;;;;;;;4996744;28;20029;-72
2023/09/05 03:31:15;;;;;;;9.45;5.53;;;;;;;;;;4992434;28;20091;-74
2023/09/05 03:33:40;;;;;;;11.65;5.55;;;;;;;;;;5011183;28;20029;-73
2023/09/05 03:36:05;;;;;;;10.07;5.57;;;;;;;;;;4996718;28;20028;-73
2023/09/05 03:38:34;;;;;;;11.30;6.20;;;;;;;;;;5013220;28;20018;-73
2023/09/05 03:40:59;;;;;;;12.25;6.22;;;;;;;;;;5013986;28;20112;-73
2023/09/05 03:43:24;;;;;;;14.57;7.32;;;;;;;;;;5012601;28;20475;-73
2023/09/05 03:45:50;;;;;;;16.52;8.55;;;;;;;;;;5012928;28;20029;-73
2023/09/05 03:48:15;;;;;;;15.60;7.80;;;;;;;;;;5012911;28;20083;-73
2023/09/05 03:50:41;;;;;;;13.80;7.30;;;;;;;;;;5014253;28;20030;-72
2023/09/05 03:53:06;;;;;;;11.85;6.72;;;;;;;;;;5012799;28;20083;-73
2023/09/05 03:55:34;;;;;;;15.13;7.45;;;;;;;;;;5012304;28;20034;-73
2023/09/05 03:58:00;;;;;;;12.57;7.20;;;;;;;;;;4996475;28;20045;-72
2023/09/05 04:00:25;;;;;;;17.35;8.48;;;;;;;;;;5024689;28;20022;-73
2023/09/05 04:02:50;;;;;;;19.67;8.43;;;;;;;;;;5012894;28;20511;-73
2023/09/05 04:05:16;;;;;;;14.40;7.32;;;;;;;;;;5014408;28;20017;-72
2023/09/05 04:07:41;;;;;;;13.30;6.43;;;;;;;;;;5012741;28;20072;-73
2023/09/05 04:10:06;;;;;;;13.85;6.88;;;;;;;;;;5013497;28;20033;-73
2023/09/05 04:12:32;;;;;;;15.30;8.15;;;;;;;;;;5014082;28;20439;-73
2023/09/05 04:14:57;;;;;;;14.88;7.43;;;;;;;;;;5012707;28;20117;-73
2023/09/05 04:17:22;;;;;;;14.05;6.85;;;;;;;;;;5029252;28;20037;-73
2023/09/05 04:19:52;;;;;;;15.02;6.78;;;;;;;;;;5029013;28;20040;-73
2023/09/05 04:22:19;;;;;;;12.90;6.55;;;;;;;;;;5012842;28;20056;-73
2023/09/05 04:24:44;;;;;;;12.13;6.55;;;;;;;;;;5012135;28;20049;-73
2023/09/05 04:27:09;;;;;;;13.60;7.18;;;;;;;;;;5013409;28;20483;-73
2023/09/05 04:29:35;;;;;;;11.07;6.30;;;;;;;;;;5012430;28;20057;-72
2023/09/05 04:32:00;;;;;;;14.85;6.82;;;;;;;;;;5007394;28;20400;-73
2023/09/05 04:34:25;;;;;;;15.52;7.45;;;;;;;;;;4994106;28;20038;-73
2023/09/05 04:36:51;;;;;;;16.35;7.97;;;;;;;;;;4995925;28;20091;-73
2023/09/05 04:39:16;;;;;;;12.10;5.78;;;;;;;;;;5013861;28;20026;-73
2023/09/05 04:41:41;;;;;;;14.27;6.90;;;;;;;;;;5032436;28;20025;-73
2023/09/05 04:44:07;;;;;;;18.77;8.95;;;;;;;;;;5017053;28;20030;-73
2023/09/05 04:46:38;;;;;;;21.05;9.43;;;;;;;;;;5015411;28;20100;-73
2023/09/05 04:49:03;;;;;;;15.88;7.97;;;;;;;;;;4999623;28;20052;-73
2023/09/05 04:51:29;;;;;;;16.13;7.53;;;;;;;;;;5015715;28;20021;-73
2023/09/05 04:53:54;;;;;;;17.30;7.82;;;;;;;;;;5017150;28;20464;-73
2023/09/05 04:56:19;;;;;;;14.25;7.32;;;;;;;;;;5016632;28;20111;-73
2023/09/05 04:58:45;;;;;;;14.38;6.97;;;;;;;;;;5015383;28;20025;-74
2023/09/05 05:01:11;;;;;;;12.82;6.13;;;;;;;;;;5013972;28;20029;-74
2023/09/05 05:03:36;;;;;;;11.13;6.00;;;;;;;;;;4997231;28;20033;-74
2023/09/05 05:06:02;;;;;;;12.77;6.32;;;;;;;;;;4979404;28;20026;-73
2023/09/05 05:08:28;;;;;;;10.55;5.88;;;;;;;;;;5034113;28;20076;-73
2023/09/05 05:10:54;;;;;;;13.18;6.18;;;;;;;;;;5035236;28;20500;-73
2023/09/05 05:13:22;;;;;;;13.02;6.28;;;;;;;;;;5024970;28;20060;-73
2023/09/05 05:15:47;;;;;;;13.07;6.93;;;;;;;;;;5015433;28;20531;-73
2023/09/05 05:18:13;;;;;;;11.48;6.57;;;;;;;;;;5015108;28;20029;-74
2023/09/05 05:20:39;;;;;;;12.25;6.32;;;;;;;;;;5015584;28;20025;-73
2023/09/05 05:23:05;;;;;;;12.05;7.50;;;;;;;;;;5015016;28;20499;-73
2023/09/05 05:25:33;;;;;;;13.02;6.43;;;;;;;;;;5015912;28;20022;-73
2023/09/05 05:27:59;;;;;;;10.20;5.57;;;;;;;;;;5014906;28;20037;-73
2023/09/05 05:30:24;;;;;;;12.75;6.57;;;;;;;;;;5016074;28;20084;-73
2023/09/05 05:32:50;;;;;;;11.80;5.90;;;;;;;;;;5031817;28;20025;-72
2023/09/05 05:35:15;;;;;;;11.73;6.18;;;;;;;;;;5015989;28;20022;-73
2023/09/05 05:37:40;;;;;;;10.25;5.50;;;;;;;;;;5014524;28;20049;-72
2023/09/05 05:40:07;;;;;;;11.75;6.55;;;;;;;;;;5016260;28;20018;-73
2023/09/05 05:42:32;;;;;;;12.98;6.45;;;;;;;;;;5015820;28;20033;-73
2023/09/05 05:44:57;;;;;;;14.65;7.65;;;;;;;;;;5016151;28;20029;-73
2023/09/05 05:47:24;;;;;;;12.75;6.90;;;;;;;;;;5013376;28;20053;-73
2023/09/05 05:49:49;;;;;;;14.18;6.82;;;;;;;;;;5015642;28;20155;-73
2023/09/05 05:52:15;;;;;;;15.40;7.35;;;;;;;;;;5014627;28;20021;-73
2023/09/05 05:54:41;;;;;;;14.48;8.55;;;;;;;;;;5015995;28;20444;-73
2023/09/05 05:57:06;;;;;;;15.02;8.57;;;;;;;;;;5014084;28;20092;-73
2023/09/05 05:59:31;;;;;;;13.23;7.47;;;;;;;;;;5013766;28;20026;-75
2023/09/05 06:01:57;;;;;;;13.43;7.82;;;;;;;;;;5014341;28;20034;-75
2023/09/05 06:04:23;;;;;;;13.20;6.97;;;;;;;;;;5013564;28;20037;-76
2023/09/05 06:06:49;;;;;;;16.02;9.07;;;;;;;;;;5031607;28;20395;-76
2023/09/05 06:09:20;;;;;;;15.68;7.88;;;;;;;;;;5049564;28;20026;-76
2023/09/05 06:11:46;;;;;;;;;;;;;;;;;;5033167;28;20025;-73
2023/09/05 06:14:12;;;;;;;17.27;7.65;;;;;;;;;;5033321;28;20425;-73
2023/09/05 06:16:37;;;;;;;15.70;7.93;;;;;;;;;;5028372;28;20051;-73
2023/09/05 06:19:03;;;;;;;15.15;8.18;;;;;;;;;;5013398;28;20468;-73
2023/09/05 06:21:28;;;;;;;17.77;8.18;;;;;;;;;;5014455;28;20112;-73
2023/09/05 06:23:53;;;;;;;19.77;10.10;;;;;;;;;;5014210;28;20400;-73
2023/09/05 06:26:18;;;;;;;17.67;8.95;;;;;;;;;;4996244;28;20030;-74
2023/09/05 06:28:44;;;;;;;18.33;10.60;;;;;;;;;;5013339;28;20112;-73
2023/09/05 06:31:09;;;;;;;19.50;10.35;;;;;;;;;;5014549;28;20044;-72
2023/09/05 06:33:34;;;;;;;20.58;10.25;;;;;;;;;;4996806;28;20104;-73
2023/09/05 06:36:07;;;;;;;16.90;9.85;;;;;;;;;;5012887;28;20030;-73
2023/09/05 06:38:33;;;;;;;17.40;9.63;;;;;;;;;;5013259;28;20026;-73
2023/09/05 06:41:05;;;;;;;20.48;9.63;;;;;;;;;;5014428;28;20121;-72
2023/09/05 06:43:30;;;;;;;23.13;11.35;;;;;;;;;;5012973;28;20124;-73
2023/09/05 06:46:06;;;;;;;19.45;10.68;;;;;;;;;;5014364;28;20112;-74
2023/09/05 06:48:31;;;;;;;22.30;11.15;;;;;;;;;;5012850;28;20053;-73
2023/09/05 06:50:58;;;;;;;15.88;8.38;;;;;;;;;;5013204;28;20531;-72
2023/09/05 06:53:23;;;;;;;17.98;9.23;;;;;;;;;;5012861;28;20030;-73
2023/09/05 06:55:49;;;;;;;18.20;8.82;;;;;;;;;;5012723;28;20076;-73
2023/09/05 06:58:14;;;;;;;23.17;12.02;;;;;;;;;;4960089;28;1065703;-73
2023/09/05 07:00:39;;;;;;;20.48;11.32;;;;;;;;;;5013715;28;20032;-73
2023/09/05 07:03:05;;;;;;;23.50;10.45;;;;;;;;;;5014736;28;20084;-73
2023/09/05 07:05:30;;;;;;;27.20;11.93;;;;;;;;;;5014221;28;20030;-73
2023/09/05 07:07:55;;;;;;;23.33;10.27;;;;;;;;;;5014128;28;20109;-74
2023/09/05 07:10:20;;;;;;;17.10;9.98;;;;;;;;;;4997228;28;20484;-72
2023/09/05 07:12:46;;;;;;;21.77;12.07;;;;;;;;;;5013304;28;20116;-71
2023/09/05 07:15:11;;;;;;;17.65;9.27;;;;;;;;;;5014552;28;20056;-71
2023/09/05 07:17:36;;;;;;;20.15;11.35;;;;;;;;;;5013898;28;20028;-71
2023/09/05 07:20:02;;;;;;;19.02;9.77;;;;;;;;;;5013117;28;20025;-72
2023/09/05 07:22:28;;;;;;;17.23;8.73;;;;;;;;;;5012942;28;20427;-71
2023/09/05 07:24:53;;;;;;;15.30;8.50;;;;;;;;;;5013001;28;20025;-72
2023/09/05 07:27:20;;;;;;;15.27;9.27;;;;;;;;;;5013408;28;20112;-71
2023/09/05 07:29:45;;;;;;;16.45;9.02;;;;;;;;;;5012793;28;20057;-73
2023/09/05 07:32:11;;;;;;;14.38;7.93;;;;;;;;;;5013140;28;20448;-72
2023/09/05 07:34:37;;;;;;;10.77;6.43;;;;;;;;;;4996268;28;20033;-73
2023/09/05 07:37:03;;;;;;;13.75;7.22;;;;;;;;;;5014172;28;20028;-73
2023/09/05 07:39:28;;;;;;;14.27;7.85;;;;;;;;;;5013248;28;20415;-73
2023/09/05 07:41:53;;;;;;;12.35;6.82;;;;;;;;;;5012615;28;20058;-73
2023/09/05 07:44:22;;;;;;;15.82;8.38;;;;;;;;;;5013424;28;20029;-73
2023/09/05 07:46:47;;;;;;;9.45;6.00;;;;;;;;;;5014129;28;20468;-73
2023/09/05 07:49:14;;;;;;;11.50;6.40;;;;;;;;;;5013965;28;20029;-73
2023/09/05 07:51:39;;;;;;;7.57;4.97;;;;;;;;;;5012397;28;20036;-73
2023/09/05 07:54:07;;;;;;;11.95;6.40;;;;;;;;;;5013983;28;20025;-73
2023/09/05 07:56:33;;;;;;;10.43;5.20;;;;;;;;;;5013973;28;20037;-72
2023/09/05 07:58:58;;;;;;;8.52;4.93;;;;;;;;;;5013595;28;20072;-74
2023/09/05 08:01:23;;;;;;;11.30;5.82;;;;;;;;;;5013972;28;20476;-73
2023/09/05 08:03:50;;;;;;;6.03;3.97;;;;;;;;;;5012860;28;20108;-73
2023/09/05 08:06:16;;;;;;;6.43;4.28;;;;;;;;;;5012825;28;20080;-73
2023/09/05 08:08:41;;;;;;;10.52;6.55;;;;;;;;;;5013634;28;20026;-73
2023/09/05 08:11:06;;;;;;;10.13;5.97;;;;;;;;;;5016689;28;20033;-72
2023/09/05 08:13:31;;;;;;;12.32;7.30;;;;;;;;;;5016967;28;20122;-73
2023/09/05 08:15:57;;;;;;;6.88;4.75;;;;;;;;;;5017397;28;20022;-73
2023/09/05 08:18:22;;;;;;;11.23;6.85;;;;;;;;;;5016650;28;20387;-73
2023/09/05 08:20:47;;;;;;;6.80;4.07;;;;;;;;;;5017986;28;20026;-73
2023/09/05 08:23:13;;;;;;;10.32;4.85;;;;;;;;;;5017840;28;20033;-73
2023/09/05 08:25:38;;;;;;;8.05;4.65;;;;;;;;;;5016525;28;20028;-73
2023/09/05 08:28:04;;;;;;;14.43;6.43;;;;;;;;;;5017182;28;20038;-74
2023/09/05 08:30:30;;;;;;;8.05;4.90;;;;;;;;;;5016683;28;20026;-73
2023/09/05 08:32:55;;;;;;;10.90;7.35;;;;;;;;;;5016484;28;20395;-72
2023/09/05 08:35:21;;;;;;;6.53;3.95;;;;;;;;;;5016629;28;20148;-73
2023/09/05 08:37:46;;;;;;;7.50;3.88;;;;;;;;;;5017488;28;20037;-73
2023/09/05 08:40:11;;;;;;;8.25;4.35;;;;;;;;;;5015815;28;20018;-73
2023/09/05 08:42:37;;;;;;;6.40;3.67;;;;;;;;;;5017586;28;20041;-73
2023/09/05 08:45:04;;;;;;;7.40;3.92;;;;;;;;;;5016169;28;20103;-72
2023/09/05 08:47:30;;;;;;;9.60;4.00;;;;;;;;;;5016163;28;20107;-73
2023/09/05 08:49:55;;;;;;;7.75;4.30;;;;;;;;;;5015696;28;20062;-73
2023/09/05 08:52:23;;;;;;;6.70;3.90;;;;;;;;;;5016102;28;20084;-73
2023/09/05 08:54:49;;;;;;;7.68;3.95;;;;;;;;;;5016102;28;20026;-73
2023/09/05 08:57:17;;;;;;;6.65;4.80;;;;;;;;;;5015455;28;20411;-75
2023/09/05 08:59:43;;;;;;;7.60;4.55;;;;;;;;;;4999955;28;20022;-72
2023/09/05 09:02:11;;;;;;;8.20;5.68;;;;;;;;;;5016006;28;20028;-73
2023/09/05 09:04:56;;;;;;;8.85;4.63;;;;;;;;;;5016061;28;20033;-73
2023/09/05 09:07:27;;;;;;;6.22;3.97;;;;;;;;;;5015896;28;20080;-73
2023/09/05 09:09:53;;;;;;;7.22;4.65;;;;;;;;;;5016593;28;20029;-73
2023/09/05 09:12:30;;;;;;;9.02;5.55;;;;;;;;;;5015731;28;20025;-73
2023/09/05 09:14:55;;;;;;;8.75;5.53;;;;;;;;;;5016911;28;20029;-72
2023/09/05 09:17:23;;;;;;;9.13;6.10;;;;;;;;;;4999070;28;20116;-74
2023/09/05 09:19:51;;;;;;;14.93;5.82;;;;;;;;;;5016792;28;20071;-73
2023/09/05 09:22:22;;;;;;;10.70;6.00;;;;;;;;;;5016566;28;20017;-73
2023/09/05 09:24:48;;;;;;;10.15;7.03;;;;;;;;;;5016982;28;20384;-73
2023/09/05 09:27:18;;;;;;;10.80;5.90;;;;;;;;;;5015441;28;20029;-73
2023/09/05 09:29:48;;;;;;;;;;;;;;;;;;5009781;28;20490;-74
2023/09/05 09:32:13;;;;;;;9.23;5.28;;;;;;;;;;4995502;28;19913;-74
2023/09/05 09:34:40;;;;;;;7.32;5.47;;;;;;;;;;5015658;28;20105;-74
2023/09/05 09:37:06;;;;;;;13.73;7.68;;;;;;;;;;5014577;28;20484;-73
2023/09/05 09:39:32;;;;;;;9.00;5.38;;;;;;;;;;5015347;28;20026;-73
2023/09/05 09:42:00;;;;;;;10.15;5.60;;;;;;;;;;4998926;28;20050;-74
2023/09/05 09:44:31;;;;;;;13.60;6.75;;;;;;;;;;5015139;28;20033;-73
2023/09/05 09:46:58;;;;;;;17.42;12.10;;;;;;;;;;5014785;28;20395;-74
2023/09/05 09:49:25;;;;;;;7.88;4.85;;;;;;;;;;4998641;28;20022;-73
2023/09/05 09:51:55;;;;;;;14.35;5.75;;;;;;;;;;5015476;28;20026;-73
2023/09/05 09:54:36;;;;;;;10.02;5.60;;;;;;;;;;5015045;28;20025;-74
2023/09/05 09:57:04;;;;;;;7.70;4.55;;;;;;;;;;5014848;28;20488;-74
2023/09/05 09:59:35;;;;;;;7.72;4.97;;;;;;;;;;5031434;28;20396;-73
2023/09/05 10:02:03;;;;;;;7.85;4.18;;;;;;;;;;5014388;28;20534;-74
2023/09/05 10:04:29;;;;;;;10.65;6.00;;;;;;;;;;5014718;28;20468;-74
2023/09/05 10:06:55;;;;;;;5.45;3.70;;;;;;;;;;5031102;28;20037;-73
2023/09/05 10:09:20;;;;;;;8.88;4.53;;;;;;;;;;5014192;28;20547;-74
2023/09/05 10:11:47;;;;;;;10.68;5.20;;;;;;;;;;5015098;28;20472;-73
2023/09/05 10:14:13;;;;;;;6.68;4.20;;;;;;;;;;5014574;28;20030;-74
2023/09/05 10:16:40;;;;;;;9.75;5.80;;;;;;;;;;5014750;28;20021;-73
2023/09/05 10:19:05;;;;;;;7.82;4.05;;;;;;;;;;5014523;28;20018;-74
2023/09/05 10:21:32;;;;;;;9.02;5.05;;;;;;;;;;4997533;28;20099;-74
2023/09/05 10:23:58;;;;;;;6.32;4.82;;;;;;;;;;5031009;28;20024;-73
2023/09/05 10:26:23;;;;;;;12.23;5.93;;;;;;;;;;5015642;28;20018;-74
2023/09/05 10:28:56;;;;;;;7.15;4.53;;;;;;;;;;5014561;28;20022;-73
2023/09/05 10:31:21;;;;;;;13.27;7.20;;;;;;;;;;4998930;28;20076;-74
2023/09/05 10:33:47;;;;;;;8.65;4.25;;;;;;;;;;5013473;28;20439;-73
2023/09/05 10:36:46;;;;;;;9.07;5.57;;;;;;;;;;5013867;28;20496;-74
2023/09/05 10:39:37;;;;;;;7.15;3.60;;;;;;;;;;5014094;28;20029;-74
2023/09/05 10:42:04;;;;;;;9.05;4.40;;;;;;;;;;5011150;28;20420;-74
2023/09/05 10:44:30;;;;;;;9.38;4.20;;;;;;;;;;5015350;28;20627;-73
2023/09/05 10:46:55;;;;;;;7.45;3.45;;;;;;;;;;5013998;28;20108;-74
2023/09/05 10:49:21;;;;;;;8.65;4.10;;;;;;;;;;5014533;28;20049;-75
2023/09/05 10:52:21;;;;;;;5.88;3.78;;;;;;;;;;5014139;28;20037;-74
2023/09/05 10:54:47;;;;;;;5.38;3.83;;;;;;;;;;4998115;28;20025;-74
2023/09/05 10:57:33;;;;;;;6.05;4.05;;;;;;;;;;4997581;28;20390;-74
2023/09/05 10:59:58;;;;;;;6.95;3.80;;;;;;;;;;5014091;28;20026;-74
2023/09/05 11:02:26;;;;;;;7.88;4.30;;;;;;;;;;5013273;28;20045;-74
2023/09/05 11:04:55;;;;;;;6.85;4.43;;;;;;;;;;5015108;28;20060;-73
2023/09/05 11:07:22;;;;;;;5.15;2.85;;;;;;;;;;5013800;28;20500;-74
2023/09/05 11:09:49;;;;;;;7.30;3.45;;;;;;;;;;5013184;28;20472;-74
2023/09/05 11:12:18;;;;;;;5.45;3.10;;;;;;;;;;5029926;28;20022;-74
2023/09/05 11:14:44;;;;;;;7.90;3.95;;;;;;;;;;5013637;28;20443;-74
2023/09/05 11:17:15;;;;;;;4.88;3.70;;;;;;;;;;5029975;28;20026;-74
2023/09/05 11:19:52;;;;;;;5.20;3.17;;;;;;;;;;5014464;28;20037;-74
2023/09/05 11:22:21;;;;;;;9.85;4.47;;;;;;;;;;5013637;28;20104;-74
2023/09/05 11:24:49;;;;;;;6.70;4.43;;;;;;;;;;5013525;28;20427;-74
2023/09/05 11:27:23;;;;;;;5.65;3.20;;;;;;;;;;4997107;28;20025;-74
2023/09/05 11:29:51;;;;;;;4.30;2.63;;;;;;;;;;5013545;28;20053;-73
2023/09/05 11:32:17;;;;;;;5.35;3.35;;;;;;;;;;5013454;28;20049;-74
2023/09/05 11:34:44;;;;;;;3.65;2.70;;;;;;;;;;5014424;28;20032;-74
2023/09/05 11:37:15;;;;;;;7.30;4.00;;;;;;;;;;5029811;28;20025;-74
2023/09/05 11:39:40;;;;;;;5.85;3.53;;;;;;;;;;5013701;28;20472;-74
2023/09/05 11:42:15;;;;;;;9.70;3.60;;;;;;;;;;5014359;28;20032;-74
2023/09/05 11:44:41;;;;;;;5.80;3.40;;;;;;;;;;5013280;28;20028;-74
2023/09/05 11:47:06;;;;;;;7.93;3.50;;;;;;;;;;4996095;28;20026;-74
2023/09/05 11:49:35;;;;;;;9.00;4.32;;;;;;;;;;5029637;28;20476;-74
2023/09/05 11:52:01;;;;;;;5.55;3.47;;;;;;;;;;5029716;28;20030;-74
2023/09/05 11:54:28;;;;;;;5.53;3.47;;;;;;;;;;5013072;28;20018;-74
2023/09/05 11:56:53;;;;;;;7.05;3.28;;;;;;;;;;5029452;28;20029;-74
2023/09/05 11:59:18;;;;;;;6.82;3.20;;;;;;;;;;5040105;23;20068;-74
2023/09/05 12:01:44;;;;;;;6.45;3.20;;;;;;;;;;5033138;28;20025;-75
2023/09/05 12:04:09;;;;;;;5.50;3.50;;;;;;;;;;5033545;28;20029;-75
2023/09/05 12:06:35;;;;;;;4.88;3.35;;;;;;;;;;5015786;28;20056;-75
2023/09/05 12:09:01;;;;;;;5.93;3.28;;;;;;;;;;5019506;28;20045;-75
2023/09/05 12:11:27;;;;;;;7.05;3.97;;;;;;;;;;5033299;28;20450;-74
2023/09/05 12:13:56;;;;;;;5.90;3.13;;;;;;;;;;5065465;28;20112;-74
2023/09/05 12:16:22;;;;;;;7.95;3.90;;;;;;;;;;5032016;28;20491;-74
2023/09/05 12:18:50;;;;;;;6.25;3.50;;;;;;;;;;5065267;28;20048;-74
2023/09/05 12:21:15;;;;;;;4.28;3.35;;;;;;;;;;5033414;28;20461;-74
2023/09/05 12:23:40;;;;;;;7.00;3.10;;;;;;;;;;5032852;28;20053;-74
2023/09/05 12:26:06;;;;;;;4.70;2.95;;;;;;;;;;5065369;28;20026;-74
2023/09/05 12:28:31;;;;;;;5.65;3.00;;;;;;;;;;5033454;28;20018;-74
2023/09/05 12:31:09;;;;;;;5.90;3.63;;;;;;;;;;5065236;28;20032;-75
2023/09/05 12:33:34;;;;;;;7.13;3.08;;;;;;;;;;5033297;28;20483;-74
2023/09/05 12:36:00;;;;;;;5.90;3.38;;;;;;;;;;5033172;28;20052;-74
2023/09/05 12:38:25;;;;;;;5.35;3.10;;;;;;;;;;5064642;28;20033;-75
2023/09/05 12:40:50;;;;;;;5.40;3.20;;;;;;;;;;5033454;28;20033;-74
2023/09/05 12:43:16;;;;;;;4.90;3.47;;;;;;;;;;5033125;28;20387;-74
2023/09/05 12:45:42;;;;;;;4.28;2.95;;;;;;;;;;5065617;28;20083;-74
2023/09/05 12:48:08;;;;;;;6.20;3.97;;;;;;;;;;5048539;28;20017;-75
2023/09/05 12:50:36;;;;;;;5.95;3.85;;;;;;;;;;5032825;28;20403;-75
2023/09/05 12:53:05;;;;;;;4.00;2.83;;;;;;;;;;5032183;28;20051;-74
2023/09/05 12:55:33;;;;;;;5.78;3.10;;;;;;;;;;5032490;28;20022;-74
2023/09/05 12:57:59;;;;;;;4.72;3.50;;;;;;;;;;5030284;28;20044;-76
2023/09/05 13:00:25;;;;;;;4.55;3.10;;;;;;;;;;5029837;28;20072;-75
2023/09/05 13:02:50;;;;;;;6.68;3.53;;;;;;;;;;5016699;28;20041;-75
2023/09/05 13:05:16;;;;;;;6.22;3.10;;;;;;;;;;5015134;28;20038;-75
2023/09/05 13:07:41;;;;;;;4.65;2.33;;;;;;;;;;5060367;28;20022;-77
2023/09/05 13:10:07;;;;;;;6.10;2.78;;;;;;;;;;5045732;28;20074;-76
2023/09/05 13:12:33;;;;;;;5.22;2.90;;;;;;;;;;5065241;28;20453;-77
2023/09/05 13:14:58;;;;;;;5.18;2.83;;;;;;;;;;5068293;28;20033;-77
2023/09/05 13:17:24;;;;;;;4.85;2.90;;;;;;;;;;5066381;28;20112;-76
2023/09/05 13:19:49;;;;;;;4.43;3.35;;;;;;;;;;5067401;28;20028;-76
2023/09/05 13:22:17;;;;;;;5.03;2.55;;;;;;;;;;5028735;28;20030;-76
2023/09/05 13:24:43;;;;;;;3.97;2.92;;;;;;;;;;5065696;28;20028;-76
2023/09/05 13:27:08;;;;;;;4.30;2.97;;;;;;;;;;5034176;28;20048;-75
2023/09/05 13:29:34;;;;;;;4.13;2.97;;;;;;;;;;5067208;28;20478;-76
2023/09/05 13:32:00;;;;;;;6.22;3.63;;;;;;;;;;5049454;28;20029;-77
2023/09/05 13:34:26;;;;;;;4.47;2.80;;;;;;;;;;5033693;28;20041;-77
2023/09/05 13:36:52;;;;;;;6.72;3.42;;;;;;;;;;5035309;28;20033;-75
2023/09/05 13:39:17;;;;;;;5.63;3.00;;;;;;;;;;5034958;28;20025;-77
2023/09/05 13:41:42;;;;;;;5.80;2.80;;;;;;;;;;5067183;28;20029;-76
2023/09/05 13:44:08;;;;;;;4.90;2.72;;;;;;;;;;5035263;28;20491;-77
2023/09/05 13:46:34;;;;;;;5.32;2.88;;;;;;;;;;5034655;28;20510;-77
2023/09/05 13:49:00;;;;;;;5.82;3.63;;;;;;;;;;5035332;28;20026;-77
2023/09/05 13:51:25;;;;;;;4.55;3.00;;;;;;;;;;5030139;28;20041;-76
2023/09/05 13:53:52;;;;;;;6.18;2.97;;;;;;;;;;5033825;28;20105;-77
2023/09/05 13:56:17;;;;;;;4.40;2.90;;;;;;;;;;5029936;28;20028;-76
2023/09/05 13:58:43;;;;;;;6.85;3.00;;;;;;;;;;5033733;28;20014;-77
2023/09/05 14:01:08;;;;;;;4.75;2.78;;;;;;;;;;5034393;28;20041;-78
2023/09/05 14:03:33;;;;;;;6.65;3.97;;;;;;;;;;5066623;28;20013;-77
2023/09/05 14:05:59;;;;;;;5.47;3.10;;;;;;;;;;5041506;28;20030;-76
2023/09/05 14:08:27;;;;;;;4.93;2.90;;;;;;;;;;5029595;28;20021;-77
2023/09/05 14:10:53;;;;;;;5.60;3.47;;;;;;;;;;5034495;28;20041;-76
2023/09/05 14:13:19;;;;;;;7.45;3.30;;;;;;;;;;5033087;28;20017;-76
2023/09/05 14:15:46;;;;;;;7.65;3.63;;;;;;;;;;5031462;28;20021;-75
2023/09/05 14:18:14;;;;;;;4.30;3.10;;;;;;;;;;5060141;28;20040;-75
2023/09/05 14:20:39;;;;;;;5.40;3.38;;;;;;;;;;5024412;28;20092;-75
2023/09/05 14:23:05;;;;;;;5.45;3.33;;;;;;;;;;5032502;28;20479;-75
2023/09/05 14:25:32;;;;;;;4.45;2.75;;;;;;;;;;5034334;28;20029;-75
2023/09/05 14:27:57;;;;;;;5.32;3.22;;;;;;;;;;5066898;28;20044;-75
2023/09/05 14:30:22;;;;;;;5.03;3.17;;;;;;;;;;5034769;28;20471;-75
2023/09/05 14:32:48;;;;;;;4.13;3.05;;;;;;;;;;5034662;28;20537;-76